Have a Safe July 4th! 

Flight Track Log - Related Links

Times and Time Zones

All times are in EDT time to prevent confusion due to time zone crossing. See the TRS94 flight status page for this flight to view local times or setup timezone preferences in your user account.

Time Position Orientation Groundspeed Altitude Reporting Facility
EDT Latitude Longitude Course Direction KTS MPH feet Rate Location/Type
Thu 01:15:05 PM 40.4242 -80.3281 185° South 257 296 4,900  Level Cleveland Center
Thu 01:16:07 PM 40.3550 -80.2939 159° South 270 311 4,900  Level Cleveland Center
Thu 01:17:09 PM 40.2878 -80.2531 155° Southeast 270 311 4,900 1,210 Level Cleveland Center
Thu 01:18:11 PM 40.2039 -80.2194 163° South 265 305 7,400 2,565 Climbing Cleveland Center
Thu 01:19:13 PM 40.1303 -80.2250 183° South 265 305 10,200 1,903 Climbing Cleveland Center
Thu 01:20:00 PM 36.8173 -80.7282 185° South  Level FlightAware Approximate
Thu 01:21:17 PM 39.9481 -80.2347 182° South 338 389 13,300  Level Cleveland Center
Thu 01:23:21 PM 39.7272 -80.2436 182° South 365 420 17,400 1,871 Climbing Cleveland Center
Thu 01:24:23 PM 39.6208 -80.2483 182° South 378 435 19,100 1,536 Climbing Cleveland Center
Thu 01:25:26 PM 39.5128 -80.2553 183° South 384 442 20,600 1,444 Climbing Cleveland Center
Thu 01:27:30 PM 39.2928 -80.2653 182° South 396 456 23,600 1,258 Climbing Cleveland Center
Thu 01:28:32 PM 39.1817 -80.2814 186° South 398 458 24,500 871 Climbing Cleveland Center
Thu 01:29:34 PM 39.0492 -80.3264 195° South 407 468 25,400 762 Climbing Cleveland Center
Thu 01:31:41 PM 38.8236 -80.3933 193° South 420 483 26,900 903 Climbing Washington Center
Thu 01:32:40 PM 38.6947 -80.4383 195° South 432 497 28,200 1,127 Climbing Washington Center
Thu 01:34:42 PM 38.4667 -80.5056 193° South 431 496 30,300 1,022 Climbing Washington Center
Thu 01:35:42 PM 38.3550 -80.5378 193° South 419 482 31,300 857 Climbing Washington Center
Thu 01:36:41 PM 38.2394 -80.5542 186° South 419 482 32,000 750 Climbing Washington Center
Thu 01:37:42 PM 38.1264 -80.5703 186° South 419 482 32,800 744 Climbing Washington Center
Thu 01:38:42 PM 38.0131 -80.5864 186° South 409 471 33,500 610 Climbing Washington Center
Thu 01:39:40 PM 37.8997 -80.6025 186° South 409 471 34,000 167 Climbing Washington Center
Thu 01:41:42 PM 37.6708 -80.6372 184° South 409 471 34,000  Level Washington Center
Thu 01:43:41 PM 37.4422 -80.6647 185° South 418 481 34,000  Level Atlanta Center
Thu 01:44:41 PM 37.3364 -80.6822 187° South 426 490 34,000  Level Atlanta Center
Thu 01:45:41 PM 37.2222 -80.6950 185° South 426 490 34,000  Level Atlanta Center
Thu 01:46:41 PM 37.1058 -80.7128 187° South 426 490 34,000  Level Atlanta Center
Thu 01:50:41 PM 36.6319 -80.7639 185° South 421 484 34,000  Level Atlanta Center
Thu 01:51:41 PM 36.5153 -80.7736 184° South 421 484 34,000  Level Atlanta Center
Thu 01:52:41 PM 36.4011 -80.7886 186° South 421 484 34,000  Level Atlanta Center
Thu 01:53:41 PM 36.2803 -80.7986 184° South 421 484 34,000  Level Atlanta Center
Thu 01:55:00 PM 36.1877 -80.7943 185° South  Level FlightAware Approximate
Thu 01:55:41 PM 36.0456 -80.8261 185° South 426 490 34,000  Level Atlanta Center
Thu 01:56:00 PM 36.0775 -80.8065 185° South  Level FlightAware Approximate
Thu 01:56:41 PM 35.9247 -80.8386 185° South 426 490 34,000  Level Atlanta Center
Thu 01:57:41 PM 35.8061 -80.8508 185° South 426 490 34,000  Level Atlanta Center
Thu 01:58:41 PM 35.6875 -80.8631 185° South 426 490 34,000  Level Atlanta Center
Thu 01:59:41 PM 35.5814 -80.8725 184° South 426 490 34,000  Level Atlanta Center
Thu 02:03:41 PM 35.1050 -80.9261 185° South 426 490 34,000  Level Atlanta Center
Thu 02:05:16 PM 34.9103 -80.9483 185° South 433 498 34,000  Level Jacksonville Center
Thu 02:06:16 PM 34.7917 -80.9611 185° South 438 504 34,000  Level Jacksonville Center
Thu 02:07:16 PM 34.6689 -80.9742 185° South 443 510 34,000  Level Jacksonville Center
Thu 02:08:00 PM 34.6648 -80.9696 185° South  Level FlightAware Approximate
Thu 02:08:16 PM 34.5481 -80.9842 184° South 443 510 34,000  Level Jacksonville Center
Thu 02:09:00 PM 34.5546 -80.9811 185° South  Level FlightAware Approximate
Thu 02:09:16 PM 34.4211 -80.9972 185° South 443 510 34,000  Level Jacksonville Center
Thu 02:10:16 PM 34.3006 -81.0350 195° South 443 510 34,000  Level Jacksonville Center
Thu 02:11:16 PM 34.1739 -81.0853 198° South 438 504 34,000  Level Jacksonville Center
Thu 02:14:16 PM 33.8150 -81.2353 175° South 459 528 34,000  Level Jacksonville Center
Thu 02:15:16 PM 33.6969 -81.2875 200° South 459 528 34,000  Level Jacksonville Center
Thu 02:16:16 PM 33.5764 -81.3369 199° South 464 534 34,000  Level Jacksonville Center
Thu 02:17:16 PM 33.4558 -81.3839 198° South 464 534 34,000  Level Jacksonville Center
Thu 02:18:16 PM 33.3375 -81.4331 199° South 464 534 34,000  Level Jacksonville Center
Thu 02:19:16 PM 33.2169 -81.4847 200° South 464 534 34,000  Level Jacksonville Center
Thu 02:20:16 PM 33.0986 -81.5339 199° South 464 534 34,000  Level Jacksonville Center
Thu 02:21:16 PM 32.9781 -81.5803 198° South 464 534 34,000  Level Jacksonville Center
Thu 02:22:16 PM 32.8575 -81.6289 199° South 464 534 34,000  Level Jacksonville Center
Thu 02:23:16 PM 32.7389 -81.6800 200° South 459 528 34,000  Level Jacksonville Center
Thu 02:24:16 PM 32.6286 -81.7111 193° South 453 521 34,000  Level Jacksonville Center
Thu 02:26:16 PM 32.3683 -81.7711 199° South 459 528 34,000  Level Jacksonville Center
Thu 02:30:16 PM 31.8681 -81.8578 200° South 460 529 34,000  Level Jacksonville Center
Thu 02:31:16 PM 31.7428 -81.8667 183° South 455 524 34,000  Level Jacksonville Center
Thu 02:32:16 PM 31.6300 -81.8728 183° South 460 529 34,000  Level Jacksonville Center
Thu 02:33:16 PM 31.4922 -81.8814 183° South 460 529 34,000  Level Jacksonville Center
Thu 02:35:00 PM 31.4628 -82.1551 200° South  Level FlightAware Approximate
Thu 02:35:16 PM 31.2589 -81.9497 194° South 460 529 34,000  Level Jacksonville Center
Thu 02:36:16 PM 31.1425 -81.9944 198° South 455 524 33,400 -650 Descending Jacksonville Center
Thu 02:37:16 PM 31.0281 -82.0561 205° Southwest 450 518 32,700 -700 Descending Jacksonville Center
Thu 02:38:16 PM 30.9178 -82.1178 206° Southwest 450 518 32,000 -650 Descending Jacksonville Center
Thu 02:39:16 PM 30.8053 -82.1767 204° Southwest 450 518 31,400 -800 Descending Jacksonville Center
Thu 02:40:16 PM 30.7014 -82.2594 214° Southwest 450 518 30,400 -467 Descending Jacksonville Center
Thu 02:42:16 PM 30.5081 -82.4464 220° Southwest 460 529 30,000 -300 Descending Jacksonville Center
Thu 02:44:00 PM 30.3155 -82.4531 182° South  Level Estimated
Thu 02:44:16 PM 30.3853 -82.7119 182° South 450 518 29,200  Level Jacksonville Center
Thu 02:45:16 PM 30.3250 -82.8419 242° Southwest 456 525 29,000 -67 Descending Jacksonville Center
Thu 02:47:16 PM 30.2058 -83.0992 242° Southwest 456 525 29,000  Level Jacksonville Center
Thu 02:48:16 PM 30.1450 -83.2264 241° Southwest 456 525 29,000  Level Jacksonville Center
Thu 02:51:16 PM 29.9703 -83.5928 240° Southwest 456 525 29,000  Level Jacksonville Center
Thu 02:52:16 PM 29.8944 -83.7047 232° Southwest 456 525 29,000  Level Jacksonville Center
Thu 02:53:16 PM 29.7811 -83.7683 206° Southwest 437 503 29,000 -300 Level Jacksonville Center
Thu 02:54:16 PM 29.6581 -83.7722 182° South 425 489 28,400 -650 Descending Jacksonville Center
Thu 02:55:16 PM 29.5372 -83.7400 167° South 416 479 27,700 -750 Descending Jacksonville Center
Thu 02:56:16 PM 29.4183 -83.6983 163° South 431 496 26,900 -767 Descending Jacksonville Center
Thu 02:58:16 PM 29.1936 -83.6039 160° South 431 496 25,400 -475 Descending Jacksonville Center
Thu 03:00:16 PM 28.9897 -83.4600 152° Southeast 430 495 25,000 -467 Descending Jacksonville Center
Thu 03:01:16 PM 28.8900 -83.3811 145° Southeast 435 501 24,000 -1,700 Descending Jacksonville Center
Thu 03:02:16 PM 28.7961 -83.3000 143° Southeast 430 495 21,600 -2,400 Descending Jacksonville Center
Thu 03:04:16 PM 28.6150 -83.1575 145° Southeast 409 471 16,800 -2,407 Descending Jacksonville Center
Thu 03:05:18 PM 28.5167 -83.0833 146° Southeast 371 427 14,300 -2,000 Descending Tampa TRACON
Thu 03:05:55 PM 28.4667 -83.0500 150° Southeast 355 409 13,500 -1,055 Descending Tampa TRACON
Thu 03:06:49 PM 28.4000 -83.0000 147° Southeast 300 345 12,700 -1,400 Descending Tampa TRACON
Thu 03:07:55 PM 28.3258 -82.9425 146° Southeast 300 345 10,700 -1,867 Descending Miami Center
Thu 03:09:49 PM 28.2667 -82.8000 115° Southeast 284 327 7,100 -1,621 Descending Tampa TRACON
Thu 03:10:49 PM 28.2833 -82.7167 77° East 279 321 6,000 -1,100 Descending Tampa TRACON
Thu 03:11:49 PM 28.2833 -82.6333 90° East 241 277 4,900 -1,300 Descending Tampa TRACON
Thu 03:12:49 PM 28.2500 -82.5667 120° Southeast 231 266 3,400 -950 Descending Tampa TRACON
Thu 03:13:49 PM 28.1833 -82.5500 168° South 227 261 3,000 -600 Descending Tampa TRACON
Thu 03:15:49 PM 28.0667 -82.5333 173° South 187 215 1,600 -667 Descending Tampa TRACON
Thu 03:16:49 PM 28.0333 -82.5333 180° South 126 145 1,000 -600 Descending Tampa TRACON

Login

Don't have an account? Register now (free) for customized features, flight alerts, and more!